createdAt,value
2019-02-10T00:02:18.660Z,74.50
2019-02-10T00:04:48.686Z,74.20
2019-02-10T00:07:18.609Z,73.80
2019-02-10T00:09:48.849Z,73.60
2019-02-10T00:12:19.703Z,73.50
2019-02-10T00:14:49.706Z,73.60
2019-02-10T00:17:19.636Z,74.60
2019-02-10T00:19:49.755Z,75.10
2019-02-10T00:22:19.670Z,75.00
2019-02-10T00:24:49.747Z,74.40
2019-02-10T00:27:19.668Z,73.80
2019-02-10T00:29:49.773Z,74.50
2019-02-10T00:32:19.679Z,74.60
2019-02-10T00:34:49.698Z,75.00
2019-02-10T00:37:20.736Z,74.60
2019-02-10T00:39:50.863Z,74.40
2019-02-10T00:42:20.771Z,74.30
2019-02-10T00:44:50.808Z,74.20
2019-02-10T00:47:20.759Z,74.20
2019-02-10T00:49:50.778Z,74.30
2019-02-10T00:52:20.676Z,74.60
2019-02-10T00:54:50.760Z,74.80
2019-02-10T00:57:20.671Z,75.00
2019-02-10T00:59:50.693Z,75.10
2019-02-10T01:02:20.616Z,75.00
2019-02-10T01:04:50.652Z,74.50
2019-02-10T01:07:20.567Z,74.40
2019-02-10T01:09:50.604Z,74.30
2019-02-10T01:12:22.936Z,74.00
2019-02-10T01:14:52.979Z,74.20
2019-02-10T01:17:35.642Z,74.20
2019-02-10T01:20:07.736Z,74.70
2019-02-10T01:22:37.673Z,75.20
2019-02-10T01:25:08.477Z,75.40
2019-02-10T01:27:38.385Z,75.60
2019-02-10T01:30:11.595Z,75.50
2019-02-10T01:32:41.494Z,75.50
2019-02-10T01:35:11.536Z,75.50
2019-02-10T01:37:41.466Z,75.50
2019-02-10T01:40:11.712Z,74.90
2019-02-10T01:42:41.633Z,74.80
2019-02-10T01:45:12.871Z,74.90
2019-02-10T01:47:42.772Z,75.70
2019-02-10T01:50:12.893Z,75.20
2019-02-10T01:52:42.818Z,75.40
2019-02-10T01:55:13.820Z,75.50
2019-02-10T01:57:44.702Z,75.40
2019-02-10T02:00:17.593Z,75.50
2019-02-10T02:02:47.503Z,75.70
2019-02-10T02:05:17.552Z,75.50
2019-02-10T02:07:48.620Z,75.60
2019-02-10T02:10:18.619Z,75.90
2019-02-10T02:12:49.497Z,75.90
2019-02-10T02:15:19.493Z,75.50
2019-02-10T02:17:50.575Z,75.30
2019-02-10T02:20:20.609Z,75.20
2019-02-10T02:22:50.513Z,75.30
2019-02-10T02:25:20.782Z,75.40
2019-02-10T02:27:51.701Z,75.10
2019-02-10T02:30:22.851Z,74.80
2019-02-10T02:32:52.788Z,74.80
2019-02-10T02:35:22.775Z,74.40
2019-02-10T02:37:53.719Z,74.10
2019-02-10T02:40:23.722Z,74.50
2019-02-10T02:42:53.677Z,74.60
2019-02-10T02:45:23.895Z,74.90
2019-02-10T02:47:54.910Z,75.00
2019-02-10T02:50:24.960Z,74.50
2019-02-10T02:52:54.870Z,74.40
2019-02-10T02:55:24.946Z,74.80
2019-02-10T02:57:55.904Z,75.40
2019-02-10T03:00:25.935Z,74.80
2019-02-10T03:02:55.862Z,75.00
2019-02-10T03:05:25.905Z,75.30
2019-02-10T03:07:56.893Z,75.20
2019-02-10T03:10:26.934Z,75.10
2019-02-10T03:12:57.814Z,75.10
2019-02-10T03:15:27.819Z,75.00
2019-02-10T03:17:58.881Z,75.40
2019-02-10T03:20:28.918Z,76.10
2019-02-10T03:22:59.024Z,77.00
2019-02-10T03:25:29.126Z,77.50
2019-02-10T03:28:00.236Z,77.50
2019-02-10T03:30:30.283Z,77.80
2019-02-10T03:33:00.302Z,78.40
2019-02-10T03:35:30.321Z,78.70
2019-02-10T03:38:02.466Z,79.40
2019-02-10T03:40:32.508Z,79.80
2019-02-10T03:43:02.535Z,80.40
2019-02-10T03:45:32.566Z,80.20
2019-02-10T03:48:03.757Z,80.40
2019-02-10T03:50:33.801Z,80.50
2019-02-10T03:53:03.737Z,79.90
2019-02-10T03:55:33.826Z,79.80
2019-02-10T03:58:04.854Z,80.30
2019-02-10T04:00:34.866Z,80.40
2019-02-10T04:03:04.787Z,80.30
2019-02-10T04:05:35.783Z,80.60
2019-02-10T04:08:06.869Z,80.60
2019-02-10T04:10:36.865Z,80.90
2019-02-10T04:13:07.741Z,80.70
2019-02-10T04:15:37.745Z,80.80
2019-02-10T04:18:08.870Z,81.10
2019-02-10T04:20:38.907Z,81.70
2019-02-10T04:23:09.930Z,81.80
2019-02-10T04:25:41.096Z,82.00
2019-02-10T04:28:12.145Z,81.90
2019-02-10T04:30:42.140Z,81.80
2019-02-10T04:33:12.080Z,81.90
2019-02-10T04:35:42.063Z,81.70
2019-02-10T04:38:13.229Z,82.10
2019-02-10T04:40:43.142Z,82.20
2019-02-10T04:43:13.165Z,81.80
2019-02-10T04:45:43.079Z,82.20
2019-02-10T04:48:14.208Z,81.80
2019-02-10T04:50:44.115Z,81.70
2019-02-10T04:53:14.145Z,81.30
2019-02-10T04:55:44.132Z,81.00
2019-02-10T04:58:15.286Z,81.40
2019-02-10T05:00:45.236Z,81.30
2019-02-10T05:03:15.209Z,81.90
2019-02-10T05:05:45.428Z,83.00
2019-02-10T05:08:16.619Z,83.20
2019-02-10T05:10:46.541Z,83.50
2019-02-10T05:13:17.442Z,83.60
2019-02-10T05:15:47.377Z,83.50
2019-02-10T05:18:18.517Z,82.70
2019-02-10T05:20:48.430Z,83.40
2019-02-10T05:23:18.444Z,83.50
2019-02-10T05:25:48.424Z,83.40
2019-02-10T05:28:19.588Z,83.40
2019-02-10T05:30:49.526Z,83.40
2019-02-10T05:33:19.519Z,83.40
2019-02-10T05:35:49.448Z,83.50
2019-02-10T05:38:20.594Z,83.60
2019-02-10T05:40:50.524Z,83.90
2019-02-10T05:43:20.535Z,83.80
2019-02-10T05:45:50.483Z,84.20
2019-02-10T05:48:21.673Z,84.30
2019-02-10T05:50:51.617Z,84.50
2019-02-10T05:53:21.623Z,84.20
2019-02-10T05:55:51.701Z,84.10
2019-02-10T05:58:22.758Z,84.10
2019-02-10T06:00:52.675Z,83.60
2019-02-10T06:03:22.699Z,83.60
2019-02-10T06:05:52.608Z,84.30
2019-02-10T06:08:23.757Z,84.60
2019-02-10T06:10:53.692Z,84.70
2019-02-10T06:13:24.618Z,84.80
2019-02-10T06:15:54.530Z,84.00
2019-02-10T06:18:25.691Z,84.00
2019-02-10T06:20:55.607Z,84.20
2019-02-10T06:23:25.632Z,83.40
2019-02-10T06:25:55.621Z,83.30
2019-02-10T06:28:27.792Z,82.70
2019-02-10T06:30:58.732Z,83.00
2019-02-10T06:33:28.728Z,83.70
2019-02-10T06:35:58.646Z,84.40
2019-02-10T06:38:29.787Z,84.20
2019-02-10T06:40:59.719Z,84.10
2019-02-10T06:43:29.738Z,84.00
2019-02-10T06:45:59.728Z,84.10
2019-02-10T06:48:33.544Z,84.10
2019-02-10T06:51:03.492Z,83.60
2019-02-10T06:53:34.768Z,83.40
2019-02-10T06:56:04.919Z,83.10
2019-02-10T06:58:36.067Z,83.50
2019-02-10T07:01:10.634Z,83.90
2019-02-10T07:03:50.877Z,84.40
2019-02-10T07:06:20.817Z,84.60
2019-02-10T07:08:54.882Z,84.60
2019-02-10T07:11:24.831Z,85.00
2019-02-10T07:13:57.037Z,84.90
2019-02-10T07:16:38.844Z,85.00
2019-02-10T07:19:46.391Z,84.90
2019-02-10T07:22:35.610Z,84.50
2019-02-10T07:25:17.946Z,85.50
2019-02-10T07:27:52.140Z,85.10
2019-02-10T07:30:43.143Z,84.60
2019-02-10T07:33:18.969Z,84.50
2019-02-10T07:36:12.663Z,84.40
2019-02-10T07:39:05.957Z,85.10
2019-02-10T07:41:48.559Z,85.10
2019-02-10T07:44:33.597Z,85.30
2019-02-10T07:47:21.640Z,85.30
2019-02-10T07:50:00.429Z,85.50
2019-02-10T07:52:37.997Z,85.70
2019-02-10T07:55:27.848Z,86.40
2019-02-10T07:58:04.103Z,85.90
2019-02-10T08:00:52.139Z,86.10
2019-02-10T08:03:31.236Z,86.40
2019-02-10T08:06:19.176Z,86.40
2019-02-10T08:09:07.741Z,85.90
2019-02-10T08:12:02.570Z,85.90
2019-02-10T08:14:44.841Z,86.10
2019-02-10T08:17:30.207Z,85.70
2019-02-10T08:20:29.582Z,85.70
2019-02-10T08:23:11.582Z,85.50
2019-02-10T08:26:16.965Z,85.60
2019-02-10T08:29:22.199Z,85.60
2019-02-10T08:32:15.328Z,85.30
2019-02-10T08:34:54.372Z,85.00
2019-02-10T08:37:47.273Z,85.00
2019-02-10T08:40:36.627Z,85.30
2019-02-10T08:43:25.845Z,85.40
2019-02-10T08:49:17.885Z,85.20
2019-02-10T08:52:09.680Z,85.50
2019-02-10T08:57:22.618Z,85.90
2019-02-10T08:59:52.639Z,86.00
2019-02-10T09:02:22.663Z,86.30
2019-02-10T09:04:52.695Z,86.30
2019-02-10T09:07:22.748Z,85.00
2019-02-10T09:10:03.573Z,84.90
2019-02-10T09:12:45.286Z,85.00
2019-02-10T09:15:28.538Z,84.20
2019-02-10T09:18:14.844Z,84.10
2019-02-10T09:20:58.677Z,84.50
2019-02-10T09:23:44.001Z,84.00
2019-02-10T09:26:27.713Z,83.30
2019-02-10T09:29:13.437Z,82.80
2019-02-10T09:31:57.336Z,82.60
2019-02-10T09:34:29.886Z,82.20
2019-02-10T09:37:00.720Z,81.70
2019-02-10T09:39:31.253Z,82.50
2019-02-10T09:42:01.177Z,83.00
2019-02-10T09:44:31.180Z,83.20
2019-02-10T09:47:01.126Z,83.40
2019-02-10T09:49:31.138Z,83.70
2019-02-10T09:52:20.516Z,84.10
2019-02-10T09:54:50.558Z,84.60
2019-02-10T09:57:20.498Z,84.70
2019-02-10T09:59:50.457Z,84.80
2019-02-10T10:02:24.281Z,84.90
2019-02-10T10:05:40.336Z,85.10
2019-02-10T10:08:22.374Z,84.80
2019-02-10T10:10:52.271Z,84.80
2019-02-10T10:13:22.317Z,84.80
2019-02-10T10:15:58.051Z,84.90
2019-02-10T10:18:28.191Z,85.00
2019-02-10T10:21:19.578Z,84.70
2019-02-10T10:23:50.762Z,84.80
2019-02-10T10:26:20.677Z,85.10
2019-02-10T10:28:50.766Z,85.30
2019-02-10T10:31:20.699Z,85.30
2019-02-10T10:33:50.732Z,85.50
2019-02-10T10:36:20.656Z,85.70
2019-02-10T10:38:50.762Z,85.60
2019-02-10T10:41:20.687Z,85.40
2019-02-10T10:43:51.721Z,85.70
2019-02-10T10:46:21.615Z,85.30
2019-02-10T10:48:51.709Z,85.50
2019-02-10T10:51:21.637Z,85.40
2019-02-10T10:53:51.700Z,85.60
2019-02-10T10:56:21.620Z,85.70
2019-02-10T10:58:51.690Z,85.80
2019-02-10T11:01:25.276Z,85.60
2019-02-10T11:04:07.228Z,85.20
2019-02-10T11:06:43.943Z,85.30
2019-02-10T11:09:14.132Z,85.40
2019-02-10T11:11:44.063Z,85.70
2019-02-10T11:14:14.075Z,86.00
2019-02-10T11:16:45.089Z,86.80
2019-02-10T11:19:15.218Z,87.10
2019-02-10T11:21:45.226Z,87.30
2019-02-10T11:24:15.712Z,87.50
2019-02-10T11:26:45.973Z,87.50
2019-02-10T11:29:15.951Z,87.50
2019-02-10T11:31:45.885Z,87.40
2019-02-10T11:34:15.971Z,87.10
2019-02-10T11:36:45.897Z,86.20
2019-02-10T11:39:15.917Z,85.50
2019-02-10T11:41:45.976Z,85.60
2019-02-10T11:44:17.003Z,85.50
2019-02-10T11:46:46.932Z,85.20
2019-02-10T11:49:18.028Z,85.20
2019-02-10T11:51:48.157Z,85.20
2019-02-10T11:54:18.241Z,85.40
2019-02-10T11:56:48.250Z,85.30
2019-02-10T11:59:18.336Z,84.60
2019-02-10T12:01:48.258Z,84.40
2019-02-10T12:04:18.330Z,85.10
2019-02-10T12:06:48.532Z,85.20
2019-02-10T12:09:18.736Z,85.20
2019-02-10T12:11:49.173Z,85.50
2019-02-10T12:14:19.611Z,85.00
2019-02-10T12:16:50.821Z,85.20
2019-02-10T12:19:21.392Z,85.10
2019-02-10T12:21:51.773Z,85.20
2019-02-10T12:24:22.188Z,85.50
2019-02-10T12:26:52.406Z,86.00
2019-02-10T12:29:22.459Z,86.70
2019-02-10T12:31:52.464Z,87.10
2019-02-10T12:34:22.552Z,87.00
2019-02-10T12:36:52.508Z,87.20
2019-02-10T12:39:23.678Z,87.70
2019-02-10T12:41:53.841Z,86.90
2019-02-10T12:44:23.831Z,87.00
2019-02-10T12:46:53.871Z,86.70
2019-02-10T12:49:24.053Z,86.10
2019-02-10T12:51:53.916Z,85.70
2019-02-10T12:54:23.923Z,84.80
2019-02-10T12:56:54.350Z,84.90
2019-02-10T12:59:24.484Z,85.00
2019-02-10T13:01:54.402Z,84.80
2019-02-10T13:04:24.485Z,85.50
2019-02-10T13:06:54.415Z,86.00
2019-02-10T13:09:24.592Z,86.40
2019-02-10T13:11:58.415Z,86.60
2019-02-10T13:14:26.199Z,86.70
2019-02-10T13:16:57.235Z,87.10
2019-02-10T13:19:27.327Z,86.80
2019-02-10T13:21:57.550Z,87.60
2019-02-10T13:24:28.280Z,87.70
2019-02-10T13:26:59.716Z,88.00
2019-02-10T13:29:30.182Z,88.30
2019-02-10T13:32:00.253Z,88.10
2019-02-10T13:34:31.728Z,87.50
2019-02-10T13:37:01.863Z,87.50
2019-02-10T13:39:32.280Z,86.90
2019-02-10T13:42:02.906Z,87.70
2019-02-10T13:44:33.344Z,87.00
2019-02-10T13:47:03.614Z,88.00
2019-02-10T13:49:33.905Z,88.70
2019-02-10T13:52:03.974Z,88.60
2019-02-10T13:54:34.095Z,88.90
2019-02-10T13:57:04.146Z,88.40
2019-02-10T13:59:34.278Z,89.10
2019-02-10T14:02:04.228Z,89.70
2019-02-10T14:04:34.273Z,89.50
2019-02-10T14:07:06.167Z,89.60
2019-02-10T14:09:36.402Z,89.40
2019-02-10T14:12:06.430Z,89.80
2019-02-10T14:14:36.538Z,90.10
2019-02-10T14:17:07.580Z,90.30
2019-02-10T14:19:38.826Z,90.50
2019-02-10T14:22:09.067Z,90.60
2019-02-10T14:24:39.173Z,90.50
2019-02-10T14:27:09.229Z,90.60
2019-02-10T14:29:39.417Z,90.40
2019-02-10T14:32:09.722Z,90.40
2019-02-10T14:34:40.290Z,90.60
2019-02-10T14:37:10.383Z,90.50
2019-02-10T14:39:40.826Z,90.90
2019-02-10T14:42:10.871Z,90.50
2019-02-10T14:44:41.357Z,90.80
2019-02-10T14:47:12.694Z,90.50
2019-02-10T14:49:44.262Z,90.50
2019-02-10T14:52:14.641Z,90.40
2019-02-10T14:54:45.234Z,90.40
2019-02-10T14:57:15.587Z,90.10
2019-02-10T14:59:46.080Z,90.20
2019-02-10T15:02:16.426Z,90.00
2019-02-10T15:04:47.006Z,90.10
2019-02-10T15:07:25.067Z,89.80
2019-02-10T15:09:49.239Z,90.10
2019-02-10T15:12:19.594Z,90.30
2019-02-10T15:14:49.963Z,90.30
2019-02-10T15:17:21.283Z,90.20
2019-02-10T15:19:51.790Z,90.40
2019-02-10T15:22:22.140Z,90.30
2019-02-10T15:24:52.649Z,90.50
2019-02-10T15:27:23.003Z,90.50
2019-02-10T15:29:53.352Z,90.20
2019-02-10T15:32:23.599Z,90.40
2019-02-10T15:34:53.980Z,90.70
2019-02-10T15:37:24.133Z,90.70
2019-02-10T15:39:54.605Z,91.00
2019-02-10T15:42:25.478Z,90.90
2019-02-10T15:44:58.410Z,90.80
2019-02-10T15:47:28.848Z,91.00
2019-02-10T15:50:06.870Z,90.80
2019-02-10T15:52:37.240Z,91.10
2019-02-10T15:55:09.628Z,91.40
2019-02-10T15:57:41.055Z,91.50
2019-02-10T16:00:14.213Z,91.70
2019-02-10T16:02:44.760Z,91.80
2019-02-10T16:05:15.269Z,92.00
2019-02-10T16:07:46.861Z,92.00
2019-02-10T16:10:17.412Z,92.10
2019-02-10T16:12:47.888Z,92.30
2019-02-10T16:15:18.249Z,92.00
2019-02-10T16:17:49.745Z,92.00
2019-02-10T16:20:20.108Z,92.20
2019-02-10T16:22:50.718Z,92.10
2019-02-10T16:25:23.948Z,92.00
2019-02-10T16:27:55.544Z,92.10
2019-02-10T16:30:25.883Z,92.40
2019-02-10T16:32:56.417Z,92.80
2019-02-10T16:35:26.983Z,93.00
2019-02-10T16:38:10.295Z,93.00
2019-02-10T16:40:40.851Z,93.10
2019-02-10T16:43:11.322Z,93.20
2019-02-10T16:45:41.688Z,93.30
2019-02-10T16:48:13.286Z,93.30
2019-02-10T16:50:43.646Z,93.60
2019-02-10T16:53:14.140Z,93.70
2019-02-10T16:55:44.509Z,93.50
2019-02-10T16:58:16.245Z,93.50
2019-02-10T17:00:49.620Z,93.50
2019-02-10T17:03:20.091Z,93.60
2019-02-10T17:05:50.604Z,93.60
2019-02-10T17:08:22.692Z,93.70
2019-02-10T17:10:53.093Z,93.80
2019-02-10T17:13:23.541Z,93.80
2019-02-10T17:15:54.002Z,93.80
2019-02-10T17:18:25.492Z,93.90
2019-02-10T17:20:55.917Z,93.80
2019-02-10T17:23:26.449Z,94.00
2019-02-10T17:26:18.132Z,93.80
2019-02-10T17:28:48.784Z,93.70
2019-02-10T17:31:19.128Z,93.60
2019-02-10T17:33:49.627Z,93.50
2019-02-10T17:36:20.213Z,93.70
2019-02-10T17:38:51.710Z,93.80
2019-02-10T17:41:23.291Z,93.70
2019-02-10T17:43:53.737Z,93.70
2019-02-10T17:46:26.144Z,93.70
2019-02-10T17:49:00.241Z,93.60
2019-02-10T17:51:32.222Z,93.60
2019-02-10T17:54:02.658Z,93.50
2019-02-10T17:56:33.060Z,93.40
2019-02-10T17:59:03.951Z,93.40
2019-02-10T18:01:34.272Z,93.50
2019-02-10T18:04:04.711Z,93.60
2019-02-10T18:06:36.715Z,93.60
2019-02-10T18:09:07.416Z,93.60
2019-02-10T18:11:38.720Z,93.70
2019-02-10T18:14:10.844Z,93.70
2019-02-10T18:16:45.951Z,93.70
2019-02-10T18:19:27.379Z,93.70
2019-02-10T18:21:59.280Z,93.50
2019-02-10T18:24:37.472Z,93.60
2019-02-10T18:27:09.580Z,93.60
2019-02-10T18:29:51.426Z,93.70
2019-02-10T18:32:29.469Z,93.60
2019-02-10T18:35:01.565Z,93.70
2019-02-10T18:37:42.870Z,93.60
2019-02-10T18:40:20.764Z,93.70
2019-02-10T18:43:04.992Z,93.70
2019-02-10T18:45:46.301Z,93.70
2019-02-10T18:48:22.457Z,93.70
2019-02-10T18:50:57.165Z,93.60
2019-02-10T18:53:38.833Z,93.70
2019-02-10T18:56:13.409Z,93.60
2019-02-10T18:58:54.200Z,93.60
2019-02-10T19:01:39.782Z,93.40
2019-02-10T19:04:11.947Z,93.40
2019-02-10T19:06:43.789Z,93.40
2019-02-10T19:09:18.581Z,93.30
2019-02-10T19:12:02.739Z,93.20
2019-02-10T19:14:44.211Z,93.00
2019-02-10T19:17:13.984Z,92.90
2019-02-10T19:19:51.088Z,92.80
2019-02-10T19:22:23.188Z,92.80
2019-02-10T19:25:11.700Z,92.80
2019-02-10T19:30:49.688Z,92.90
2019-02-10T19:33:21.646Z,92.60
2019-02-10T19:35:56.939Z,92.50
2019-02-10T19:38:33.106Z,92.40
2019-02-10T19:41:15.977Z,92.40
2019-02-10T19:43:57.495Z,92.40
2019-02-10T19:46:38.602Z,92.40
2019-02-10T19:52:18.826Z,92.40
2019-02-10T19:55:02.749Z,92.40
2019-02-10T19:57:37.537Z,92.40
2019-02-10T20:00:11.604Z,92.60
2019-02-10T20:02:52.694Z,92.40
2019-02-10T20:05:41.892Z,92.40
2019-02-10T20:08:29.071Z,92.30
2019-02-10T20:11:13.548Z,91.90
2019-02-10T20:13:52.275Z,92.00
2019-02-10T20:16:39.771Z,91.80
2019-02-10T20:19:18.541Z,91.80
2019-02-10T20:22:07.393Z,91.90
2019-02-10T20:24:42.927Z,91.80
2019-02-10T20:27:30.473Z,91.70
2019-02-10T20:30:05.518Z,91.60
2019-02-10T20:32:38.231Z,91.70
2019-02-10T20:35:10.196Z,91.80
2019-02-10T20:37:45.299Z,91.60
2019-02-10T20:40:17.152Z,91.80
2019-02-10T20:42:49.407Z,91.90
2019-02-10T20:45:21.697Z,91.80
2019-02-10T20:48:12.321Z,91.70
2019-02-10T20:51:01.052Z,91.50
2019-02-10T20:53:48.454Z,91.60
2019-02-10T20:56:20.494Z,91.80
2019-02-10T20:58:58.827Z,91.70
2019-02-10T21:01:37.207Z,91.60
2019-02-10T21:04:16.179Z,91.80
2019-02-10T21:06:54.368Z,91.90
2019-02-10T21:09:41.922Z,92.00
2019-02-10T21:15:25.496Z,92.30
2019-02-10T21:17:57.483Z,91.80
2019-02-10T21:21:07.346Z,91.90
2019-02-10T21:23:56.956Z,91.60
2019-02-10T21:26:29.845Z,91.40
2019-02-10T21:29:04.983Z,91.60
2019-02-10T21:32:07.136Z,91.50
2019-02-10T21:34:58.069Z,91.70
2019-02-10T21:37:39.918Z,91.50
2019-02-10T21:40:18.537Z,91.50
2019-02-10T21:42:53.800Z,91.70
2019-02-10T21:45:31.610Z,92.00
2019-02-10T21:48:09.194Z,92.00
2019-02-10T21:50:39.457Z,91.60
2019-02-10T21:53:11.571Z,91.40
2019-02-10T21:55:41.602Z,91.10
2019-02-10T21:58:11.984Z,91.40
2019-02-10T22:00:43.174Z,91.50
2019-02-10T22:03:14.629Z,91.70
2019-02-10T22:05:45.142Z,92.00
2019-02-10T22:08:15.829Z,91.70
2019-02-10T22:10:46.461Z,91.60
2019-02-10T22:13:17.734Z,91.80
2019-02-10T22:15:49.053Z,92.00
2019-02-10T22:18:19.334Z,91.90
2019-02-10T22:20:49.471Z,91.80
2019-02-10T22:23:19.782Z,91.50
2019-02-10T22:25:49.692Z,91.30
2019-02-10T22:28:20.835Z,91.50
2019-02-10T22:30:51.107Z,91.70
2019-02-10T22:33:21.147Z,91.70
2019-02-10T22:35:51.171Z,91.50
2019-02-10T22:38:21.942Z,91.30
2019-02-10T22:40:53.096Z,91.30
2019-02-10T22:43:25.438Z,91.20
2019-02-10T22:45:56.458Z,91.40
2019-02-10T22:48:27.044Z,91.30
2019-02-10T22:50:56.978Z,91.30
2019-02-10T22:53:27.157Z,91.20
2019-02-10T22:55:57.063Z,91.30
2019-02-10T22:58:27.049Z,91.10
2019-02-10T23:01:00.010Z,91.10
2019-02-10T23:03:30.338Z,91.30
2019-02-10T23:06:00.376Z,91.00
2019-02-10T23:08:30.331Z,90.70
2019-02-10T23:11:00.237Z,90.60
2019-02-10T23:13:30.327Z,90.80
2019-02-10T23:16:00.290Z,90.90
2019-02-10T23:18:30.292Z,91.00
2019-02-10T23:21:00.203Z,90.70
2019-02-10T23:23:31.337Z,90.80
2019-02-10T23:26:01.472Z,90.60
2019-02-10T23:28:31.839Z,90.60
2019-02-10T23:31:01.764Z,90.70
2019-02-10T23:33:32.840Z,90.70
2019-02-10T23:36:02.746Z,90.80
2019-02-10T23:38:32.762Z,90.80
2019-02-10T23:41:02.715Z,90.70
2019-02-10T23:43:33.817Z,90.90
2019-02-10T23:46:03.789Z,90.40
2019-02-10T23:48:33.812Z,90.80
2019-02-10T23:51:03.706Z,90.60
2019-02-10T23:53:34.805Z,91.10
2019-02-10T23:56:04.718Z,90.60
2019-02-10T23:58:34.844Z,90.70
